Time;durP1;ratioP1;P1;durP2;ratioP2;P2;SDS_P1;SDS_P2;PMS_P1;PMS_P2;Temp;Humidity;BMP_temperature;BMP_pressure;BME280_temperature;BME280_humidity;BME280_pressure;Samples;Min_cycle;Max_cycle;Signal;HPM_P1;HPM_P2
2024/03/23 00:01:38;;;;;;;5.03;4.53;;;9.50;92.90;;;;;;5097019;27;20726;-72
2024/03/23 00:04:09;;;;;;;4.50;4.10;;;9.40;93.20;;;;;;5097705;27;20630;-72
2024/03/23 00:06:39;;;;;;;4.47;4.07;;;9.40;92.90;;;;;;5060689;27;20617;-72
2024/03/23 00:09:09;;;;;;;3.80;3.50;;;9.40;93.30;;;;;;5129656;27;20615;-72
2024/03/23 00:11:38;;;;;;;7.63;4.20;;;9.40;93.10;;;;;;5046556;28;20630;-72
2024/03/23 00:14:09;;;;;;;6.10;3.50;;;9.40;93.20;;;;;;5111154;27;20697;-72
2024/03/23 00:16:38;;;;;;;4.00;3.70;;;9.40;93.10;;;;;;5081585;28;20652;-72
2024/03/23 00:19:09;;;;;;;4.33;3.93;;;9.40;93.20;;;;;;5074457;27;20618;-72
2024/03/23 00:21:40;;;;;;;5.97;4.60;;;9.40;93.20;;;;;;5119182;27;20660;-72
2024/03/23 00:24:11;;;;;;;4.33;3.93;;;9.40;93.20;;;;;;5044206;28;20620;-72
2024/03/23 00:26:40;;;;;;;7.20;4.47;;;9.40;93.10;;;;;;5045150;28;20957;-72
2024/03/23 00:29:11;;;;;;;4.70;4.20;;;9.40;93.20;;;;;;5108004;28;20664;-72
2024/03/23 00:31:40;;;;;;;4.90;4.27;;;9.40;93.30;;;;;;5084515;28;20669;-72
2024/03/23 00:34:11;;;;;;;3.70;3.40;;;9.40;93.10;;;;;;5073146;28;20618;-72
2024/03/23 00:36:40;;;;;;;4.37;4.07;;;9.40;93.30;;;;;;5120399;28;20631;-72
2024/03/23 00:39:11;;;;;;;7.60;4.20;;;9.40;93.40;;;;;;5044694;28;20626;-72
2024/03/23 00:41:40;;;;;;;4.83;3.90;;;9.40;93.10;;;;;;5123705;28;20723;-72
2024/03/23 00:44:11;;;;;;;3.80;3.50;;;9.40;93.30;;;;;;5069786;28;20631;-72
2024/03/23 00:46:40;;;;;;;4.40;4.00;;;9.50;93.30;;;;;;5044690;28;20638;-72
2024/03/23 00:49:10;;;;;;;6.13;3.93;;;9.50;93.30;;;;;;5031373;28;20671;-72
2024/03/23 00:51:39;;;;;;;4.40;3.77;;;9.60;92.90;;;;;;5028741;28;20624;-72
2024/03/23 00:54:06;;;;;;;4.47;4.07;;;9.70;92.80;;;;;;5028686;28;20625;-71
2024/03/23 00:56:32;;;;;;;3.33;3.03;;;9.70;92.90;;;;;;5046073;28;20652;-72
2024/03/23 00:58:59;;;;;;;4.10;3.27;;;9.70;92.80;;;;;;5101062;27;20690;-72
2024/03/23 01:01:24;;;;;;;3.90;3.60;;;9.80;92.90;;;;;;5101368;27;20627;-71
2024/03/23 01:03:52;;;;;;;5.40;3.77;;;9.80;92.80;;;;;;5061765;27;20616;-72
2024/03/23 01:06:18;;;;;;;4.53;3.50;;;9.80;92.80;;;;;;5133395;27;20614;-72
2024/03/23 01:08:47;;;;;;;5.63;2.53;;;9.70;92.90;;;;;;5054279;27;20972;-71
2024/03/23 01:11:15;;;;;;;3.97;3.40;;;9.70;93.00;;;;;;5108618;27;21277;-71
2024/03/23 01:13:41;;;;;;;3.60;3.17;;;9.80;92.80;;;;;;5093414;27;21071;-71
2024/03/23 01:16:08;;;;;;;3.90;3.30;;;9.80;92.70;;;;;;5068521;27;21034;-71
2024/03/23 01:18:34;;;;;;;3.90;3.30;;;9.90;92.90;;;;;;5132982;27;20211;-71
2024/03/23 01:21:01;;;;;;;2.80;2.60;;;9.90;92.70;;;;;;5008817;28;20622;-71
2024/03/23 01:23:26;;;;;;;3.80;3.13;;;10.00;92.20;;;;;;5039116;28;20209;-71
2024/03/23 01:25:55;;;;;;;3.90;3.50;;;10.00;92.00;;;;;;5042372;28;20616;-72
2024/03/23 01:28:22;;;;;;;3.70;3.23;;;10.00;92.00;;;;;;5073691;27;20198;-72
2024/03/23 01:30:49;;;;;;;3.23;2.90;;;10.00;92.30;;;;;;5127739;27;20614;-72
2024/03/23 01:33:15;;;;;;;3.17;2.87;;;10.10;92.10;;;;;;5048603;28;20986;-72
2024/03/23 01:35:41;;;;;;;3.63;3.27;;;10.10;92.10;;;;;;5118488;27;20622;-71
2024/03/23 01:38:07;;;;;;;3.53;3.20;;;10.10;92.20;;;;;;5080620;27;20222;-72
2024/03/23 01:40:34;;;;;;;3.30;3.00;;;10.20;92.00;;;;;;5078433;27;20626;-72
2024/03/23 01:43:05;;;;;;;3.50;3.20;;;10.20;91.90;;;;;;5123287;27;20615;-72
2024/03/23 01:45:32;;;;;;;6.03;3.43;;;10.10;92.20;;;;;;5048783;28;20611;-72
2024/03/23 01:47:58;;;;;;;3.53;3.23;;;10.10;92.20;;;;;;5046380;28;21198;-72
2024/03/23 01:50:25;;;;;;;3.70;2.80;;;10.20;92.60;;;;;;5060760;27;20636;-72
2024/03/23 01:52:51;;;;;;;3.13;2.83;;;10.20;92.10;;;;;;5040759;27;20625;-72
2024/03/23 01:55:18;;;;;;;3.37;3.07;;;10.30;92.20;;;;;;5032808;28;20735;-72
2024/03/23 01:57:44;;;;;;;4.83;2.97;;;10.30;92.10;;;;;;5047847;28;20692;-72
2024/03/23 02:00:14;;;;;;;4.13;3.00;;;10.40;92.20;;;;;;5130746;27;20632;-72
2024/03/23 02:02:43;;;;;;;3.43;3.00;;;10.40;92.10;;;;;;5066760;27;20715;-72
2024/03/23 02:05:11;;;;;;;4.27;3.43;;;10.40;91.90;;;;;;5093353;27;21186;-72
2024/03/23 02:07:38;;;;;;;4.33;3.53;;;10.40;92.20;;;;;;5105111;27;20621;-71
2024/03/23 02:10:06;;;;;;;4.10;3.47;;;10.30;92.20;;;;;;5055377;27;20688;-72
2024/03/23 02:12:32;;;;;;;3.30;3.07;;;10.40;92.30;;;;;;5132395;27;20626;-72
2024/03/23 02:15:01;;;;;;;3.63;2.80;;;10.50;92.20;;;;;;5058826;27;20679;-71
2024/03/23 02:17:32;;;;;;;3.20;2.93;;;10.50;92.00;;;;;;5101422;27;20640;-72
2024/03/23 02:20:00;;;;;;;9.90;3.97;;;10.40;92.20;;;;;;5095413;27;20619;-72
2024/03/23 02:22:35;;;;;;;3.50;3.20;;;10.40;92.30;;;;;;5066127;27;20624;-72
2024/03/23 02:25:04;;;;;;;6.47;3.80;;;10.40;92.60;;;;;;5083756;27;20674;-71
2024/03/23 02:27:30;;;;;;;6.43;3.23;;;10.40;92.70;;;;;;5046836;28;20631;-72
2024/03/23 02:29:57;;;;;;;3.33;3.00;;;10.40;92.70;;;;;;5115282;27;20617;-72
2024/03/23 02:32:22;;;;;;;4.63;3.93;;;10.40;92.70;;;;;;5082835;27;20721;-71
2024/03/23 02:34:50;;;;;;;3.73;3.43;;;10.40;92.70;;;;;;5076568;27;20719;-71
2024/03/23 02:37:17;;;;;;;3.60;3.30;;;10.40;92.80;;;;;;5121119;27;20643;-71
2024/03/23 02:39:44;;;;;;;3.80;3.03;;;10.40;92.80;;;;;;5047497;28;21011;-71
2024/03/23 02:42:12;;;;;;;3.53;3.23;;;10.40;92.70;;;;;;5122611;27;21190;-71
2024/03/23 02:44:40;;;;;;;3.80;3.50;;;10.40;92.80;;;;;;5075699;27;21200;-72
2024/03/23 02:47:06;;;;;;;5.70;3.90;;;10.40;92.90;;;;;;5043250;28;20677;-71
2024/03/23 02:49:35;;;;;;;5.07;3.93;;;10.40;93.00;;;;;;5055411;27;20688;-71
2024/03/23 02:52:02;;;;;;;4.77;3.67;;;10.40;93.10;;;;;;5027600;28;20613;-71
2024/03/23 02:54:30;;;;;;;3.70;3.13;;;10.40;93.20;;;;;;5046841;28;20624;-72
2024/03/23 02:56:57;;;;;;;3.60;3.30;;;10.40;93.20;;;;;;5109814;27;20745;-71
2024/03/23 02:59:26;;;;;;;4.07;3.27;;;10.40;93.30;;;;;;5087678;27;20782;-71
2024/03/23 03:01:52;;;;;;;4.57;3.90;;;10.40;93.10;;;;;;5072544;27;20680;-71
2024/03/23 03:04:21;;;;;;;6.00;3.40;;;10.40;93.20;;;;;;5125297;27;20626;-71
2024/03/23 03:06:48;;;;;;;3.17;2.87;;;10.40;93.30;;;;;;5046602;28;20680;-71
2024/03/23 03:09:15;;;;;;;3.63;3.33;;;10.40;93.30;;;;;;5118709;27;21204;-71
2024/03/23 03:11:42;;;;;;;3.87;3.43;;;10.40;93.40;;;;;;5078833;27;20633;-70
2024/03/23 03:14:10;;;;;;;3.20;3.00;;;10.40;93.40;;;;;;5079826;27;20708;-71
2024/03/23 03:16:38;;;;;;;2.80;2.60;;;10.50;93.50;;;;;;5117057;27;20616;-71
2024/03/23 03:19:06;;;;;;;4.23;3.77;;;10.40;93.40;;;;;;5046291;28;20649;-71
2024/03/23 03:21:32;;;;;;;3.37;3.03;;;10.50;93.40;;;;;;5126523;27;20615;-71
2024/03/23 03:23:59;;;;;;;2.90;2.70;;;10.50;93.40;;;;;;5070161;27;20623;-71
2024/03/23 03:26:25;;;;;;;3.30;3.00;;;10.50;93.30;;;;;;5036310;28;20653;-71
2024/03/23 03:28:53;;;;;;;3.37;3.07;;;10.50;93.40;;;;;;5066623;27;20608;-71
2024/03/23 03:31:20;;;;;;;4.00;3.70;;;10.60;93.30;;;;;;5130641;27;20615;-71
2024/03/23 03:33:51;;;;;;;4.00;3.37;;;10.60;93.20;;;;;;5046553;28;20620;-71
2024/03/23 03:36:18;;;;;;;3.43;3.03;;;10.60;93.30;;;;;;5114478;27;20628;-72
2024/03/23 03:38:46;;;;;;;3.80;3.50;;;10.60;93.20;;;;;;5081637;27;21042;-72
2024/03/23 03:41:13;;;;;;;3.73;3.43;;;10.60;93.20;;;;;;5076388;27;20717;-72
2024/03/23 03:43:43;;;;;;;3.63;3.33;;;10.50;93.30;;;;;;5119549;27;20622;-72
2024/03/23 03:46:10;;;;;;;4.13;3.60;;;10.40;93.50;;;;;;5041565;28;20622;-72
2024/03/23 03:48:38;;;;;;;8.50;3.80;;;10.40;93.60;;;;;;5043744;28;20627;-72
2024/03/23 03:51:05;;;;;;;4.10;3.70;;;10.30;93.60;;;;;;5045189;28;20683;-72
2024/03/23 03:53:32;;;;;;;5.23;3.77;;;10.30;93.80;;;;;;5043228;28;20982;-72
2024/03/23 03:56:00;;;;;;;3.87;3.50;;;10.20;94.00;;;;;;5064211;27;21036;-71
2024/03/23 03:58:27;;;;;;;4.20;3.83;;;10.30;94.00;;;;;;5129933;27;20643;-72
2024/03/23 04:00:53;;;;;;;5.80;4.00;;;10.20;93.90;;;;;;5046411;28;20978;-71
2024/03/23 04:03:20;;;;;;;4.03;3.70;;;10.10;94.10;;;;;;5109130;27;20614;-72
2024/03/23 04:05:51;;;;;;;3.93;3.53;;;10.10;94.30;;;;;;5085529;27;20288;-72
2024/03/23 04:08:19;;;;;;;3.60;3.30;;;10.00;94.40;;;;;;5072069;27;21180;-72
2024/03/23 04:10:45;;;;;;;3.80;3.40;;;10.00;94.40;;;;;;5122940;27;21257;-71
2024/03/23 04:13:12;;;;;;;4.97;4.33;;;9.90;95.20;;;;;;5046025;28;20721;-72
2024/03/23 04:15:38;;;;;;;4.50;3.37;;;10.00;94.70;;;;;;5118405;27;20626;-72
2024/03/23 04:18:05;;;;;;;5.70;4.10;;;10.00;94.60;;;;;;5077911;27;21005;-72
2024/03/23 04:20:32;;;;;;;4.77;3.93;;;9.90;95.20;;;;;;5078407;27;20619;-71
2024/03/23 04:22:58;;;;;;;6.53;3.97;;;9.90;95.40;;;;;;5118480;27;21161;-71
2024/03/23 04:25:26;;;;;;;6.40;4.00;;;9.90;95.50;;;;;;5033587;28;20731;-71
2024/03/23 04:27:53;;;;;;;4.67;4.27;;;9.90;95.50;;;;;;5043497;28;20979;-72
2024/03/23 04:30:19;;;;;;;6.17;3.10;;;9.90;95.70;;;;;;5103812;28;21196;-72
2024/03/23 04:32:46;;;;;;;3.40;3.20;;;9.90;95.50;;;;;;5091766;27;20638;-72
2024/03/23 04:35:12;;;;;;;3.33;3.07;;;9.80;95.70;;;;;;5064007;28;20627;-72
2024/03/23 04:37:41;;;;;;;4.63;3.10;;;9.70;95.80;;;;;;5128653;28;20648;-72
2024/03/23 04:40:08;;;;;;;5.53;5.03;;;9.70;96.10;;;;;;5006104;28;20613;-72
2024/03/23 04:42:37;;;;;;;4.00;3.60;;;9.60;96.20;;;;;;5036288;28;20659;-72
2024/03/23 04:45:06;;;;;;;5.40;3.70;;;9.50;96.70;;;;;;5091647;28;20970;-72
2024/03/23 04:47:33;;;;;;;3.60;3.30;;;9.50;97.10;;;;;;5053141;28;20679;-72
2024/03/23 04:50:01;;;;;;;5.50;3.70;;;9.60;97.40;;;;;;5042331;28;20713;-72
2024/03/23 04:52:27;;;;;;;6.23;3.80;;;9.70;97.60;;;;;;5041920;28;21179;-72
2024/03/23 04:54:53;;;;;;;3.70;3.33;;;9.80;97.90;;;;;;5043003;28;20615;-72
2024/03/23 04:57:20;;;;;;;5.80;4.20;;;9.80;98.20;;;;;;5097785;28;20651;-72
2024/03/23 04:59:47;;;;;;;6.00;5.40;;;9.90;99.20;;;;;;5096398;28;20206;-72
2024/03/23 05:02:14;;;;;;;6.40;5.80;;;10.00;99.90;;;;;;5059435;28;20645;-71
2024/03/23 05:04:41;;;;;;;7.10;4.60;;;9.90;99.90;;;;;;5129655;28;20618;-72
2024/03/23 05:07:08;;;;;;;7.80;6.60;;;9.80;99.90;;;;;;5050297;28;21166;-71
2024/03/23 05:09:33;;;;;;;8.40;7.60;;;9.70;99.90;;;;;;5104697;28;20626;-72
2024/03/23 05:12:01;;;;;;;7.77;6.10;;;9.60;99.90;;;;;;5090586;28;20988;-72
2024/03/23 05:14:26;;;;;;;7.00;6.27;;;9.60;99.90;;;;;;5064799;28;20201;-71
2024/03/23 05:16:55;;;;;;;7.60;6.67;;;9.50;99.90;;;;;;5128801;28;20663;-71
2024/03/23 05:19:22;;;;;;;11.10;9.10;;;9.50;99.90;;;;;;5005731;28;20214;-71
2024/03/23 05:21:48;;;;;;;11.03;9.50;;;9.40;99.90;;;;;;5036164;28;20629;-72
2024/03/23 05:24:14;;;;;;;13.27;9.87;;;9.40;99.90;;;;;;5075599;28;20630;-72
2024/03/23 05:26:41;;;;;;;11.37;9.90;;;9.40;99.90;;;;;;5030983;28;21218;-72
2024/03/23 05:29:10;;;;;;;13.57;11.77;;;9.30;99.90;;;;;;5049429;28;20211;-72
2024/03/23 05:31:37;;;;;;;15.00;11.67;;;9.30;99.90;;;;;;5129102;27;20687;-71
2024/03/23 05:34:04;;;;;;;13.90;10.47;;;9.20;99.90;;;;;;5057600;28;20990;-71
2024/03/23 05:36:32;;;;;;;15.17;11.83;;;9.20;99.90;;;;;;5096493;28;20630;-71
2024/03/23 05:38:58;;;;;;;15.03;11.57;;;9.20;99.90;;;;;;5099198;28;20646;-71
2024/03/23 05:41:24;;;;;;;14.20;11.20;;;9.10;99.90;;;;;;5051941;27;20666;-71
2024/03/23 05:43:50;;;;;;;15.80;10.97;;;9.10;99.90;;;;;;5048625;28;20210;-71
2024/03/23 05:46:17;;;;;;;16.93;11.73;;;9.10;99.90;;;;;;5097161;27;20615;-71
2024/03/23 05:48:43;;;;;;;14.40;11.93;;;9.10;99.90;;;;;;5041682;28;20283;-72
2024/03/23 05:51:12;;;;;;;14.93;12.13;;;9.10;99.90;;;;;;5042113;28;20944;-72
2024/03/23 05:53:38;;;;;;;13.17;9.80;;;9.00;99.90;;;;;;5039563;28;21178;-72
2024/03/23 05:56:06;;;;;;;9.37;7.73;;;9.00;99.90;;;;;;5047886;28;20712;-71
2024/03/23 05:58:32;;;;;;;9.50;7.53;;;8.90;99.90;;;;;;5131576;27;20650;-71
2024/03/23 06:01:00;;;;;;;9.80;7.33;;;8.90;99.90;;;;;;5068991;27;20610;-72
2024/03/23 06:03:25;;;;;;;6.73;5.30;;;8.80;99.90;;;;;;5092351;27;20615;-72
2024/03/23 06:05:53;;;;;;;10.17;6.00;;;8.80;99.90;;;;;;5108753;27;21166;-72
2024/03/23 06:08:20;;;;;;;9.03;6.43;;;8.60;99.90;;;;;;5051991;27;20211;-71
2024/03/23 06:10:47;;;;;;;4.57;3.80;;;8.70;99.90;;;;;;5131859;27;20606;-72
2024/03/23 06:13:13;;;;;;;4.87;3.17;;;8.60;99.90;;;;;;5062558;27;20627;-71
2024/03/23 06:15:40;;;;;;;4.23;3.37;;;8.50;99.90;;;;;;5097585;27;20653;-71
2024/03/23 06:18:07;;;;;;;5.00;3.03;;;8.50;99.90;;;;;;5101903;27;20656;-71
2024/03/23 06:20:34;;;;;;;2.80;2.30;;;8.40;99.90;;;;;;5058235;27;20626;-71
2024/03/23 06:23:00;;;;;;;3.00;2.10;;;8.40;99.90;;;;;;5131924;27;20201;-71
2024/03/23 06:25:28;;;;;;;2.70;2.50;;;8.30;99.90;;;;;;5043903;27;20207;-72
2024/03/23 06:27:54;;;;;;;2.10;1.90;;;8.20;99.90;;;;;;5104326;27;20623;-73
2024/03/23 06:30:21;;;;;;;2.77;1.90;;;8.10;99.90;;;;;;5096462;27;20614;-72
2024/03/23 06:32:47;;;;;;;2.10;1.87;;;8.10;99.90;;;;;;5022268;28;20728;-72
2024/03/23 06:35:14;;;;;;;1.53;1.13;;;8.10;99.90;;;;;;5018778;28;20621;-72
2024/03/23 06:37:40;;;;;;;1.27;0.95;;;8.00;99.90;;;;;;5019414;28;20217;-71
2024/03/23 06:40:09;;;;;;;2.25;1.15;;;8.00;99.90;;;;;;5020333;28;20196;-72
2024/03/23 06:42:36;;;;;;;0.80;0.80;;;7.90;99.90;;;;;;5016676;27;20230;-72
2024/03/23 06:45:04;;;;;;;0.70;0.57;;;7.90;99.90;;;;;;5073235;27;20197;-72
2024/03/23 06:47:30;;;;;;;0.80;0.80;;;7.90;99.90;;;;;;5050529;27;20215;-71
2024/03/23 06:49:57;;;;;;;1.20;1.10;;;7.90;99.90;;;;;;5043257;28;20197;-72
2024/03/23 06:52:23;;;;;;;1.15;1.05;;;7.90;99.90;;;;;;5038969;28;20632;-73
2024/03/23 06:54:49;;;;;;;1.57;1.03;;;7.90;99.90;;;;;;5038630;28;20269;-72
2024/03/23 06:57:15;;;;;;;1.63;1.40;;;7.90;99.90;;;;;;5074159;27;20577;-71
2024/03/23 06:59:44;;;;;;;2.60;1.67;;;7.90;99.90;;;;;;5124910;27;20205;-72
2024/03/23 07:02:09;;;;;;;0.93;0.82;;;7.90;99.90;;;;;;5012311;28;20225;-72
2024/03/23 07:04:36;;;;;;;3.30;2.10;;;8.00;99.90;;;;;;5042019;28;20699;-72
2024/03/23 07:07:02;;;;;;;1.67;1.17;;;7.90;99.90;;;;;;5073373;27;20200;-71
2024/03/23 07:09:29;;;;;;;1.70;1.53;;;7.90;99.90;;;;;;5019038;28;20181;-71
2024/03/23 07:11:56;;;;;;;0.90;0.90;;;8.00;99.90;;;;;;5019471;28;20618;-72
2024/03/23 07:14:24;;;;;;;0.60;0.60;;;8.00;99.90;;;;;;5018638;28;20612;-72
2024/03/23 07:16:53;;;;;;;0.98;0.88;;;8.00;99.90;;;;;;5022865;28;20197;-72
2024/03/23 07:19:20;;;;;;;2.80;0.80;;;8.00;99.90;;;;;;5022178;28;20617;-72
2024/03/23 07:21:45;;;;;;;1.42;1.25;;;8.00;99.90;;;;;;5021796;28;20197;-72
2024/03/23 07:24:13;;;;;;;2.20;0.87;;;8.00;99.90;;;;;;5016627;28;20226;-71
2024/03/23 07:26:38;;;;;;;0.80;0.63;;;8.00;99.90;;;;;;5046291;27;20980;-73
2024/03/23 07:29:06;;;;;;;0.50;0.50;;;8.00;99.90;;;;;;5041545;27;20615;-71
2024/03/23 07:31:32;;;;;;;1.00;0.90;;;8.00;99.90;;;;;;5041326;28;20207;-72
2024/03/23 07:34:00;;;;;;;0.73;0.68;;;8.10;99.90;;;;;;5039962;28;20192;-72
2024/03/23 07:36:26;;;;;;;0.57;0.52;;;8.10;99.90;;;;;;5039325;28;20211;-71
2024/03/23 07:38:53;;;;;;;0.83;0.80;;;8.00;99.90;;;;;;5051926;27;20228;-71
2024/03/23 07:41:20;;;;;;;0.70;0.67;;;8.20;99.90;;;;;;5106717;27;20207;-72
2024/03/23 07:43:48;;;;;;;1.57;0.70;;;8.10;99.90;;;;;;5043738;28;20618;-71
2024/03/23 07:46:16;;;;;;;0.90;0.85;;;8.00;99.90;;;;;;5042686;28;20638;-72
2024/03/23 07:48:43;;;;;;;0.60;0.60;;;8.00;99.90;;;;;;5045393;28;20200;-72
2024/03/23 07:51:16;;;;;;;0.60;0.60;;;8.00;99.90;;;;;;5042550;27;20626;-72
2024/03/23 07:53:45;;;;;;;0.60;0.60;;;8.00;99.90;;;;;;5050147;27;20607;-71
2024/03/23 07:56:11;;;;;;;0.70;0.50;;;8.00;99.90;;;;;;5046104;28;20336;-72
2024/03/23 07:58:39;;;;;;;0.50;0.40;;;8.00;99.90;;;;;;5109475;27;20585;-72
2024/03/23 08:01:07;;;;;;;0.60;0.53;;;8.00;99.90;;;;;;5085036;27;21207;-72
2024/03/23 08:03:34;;;;;;;0.80;0.65;;;8.00;99.90;;;;;;5070953;27;20619;-72
2024/03/23 08:06:07;;;;;;;1.95;0.68;;;7.90;99.90;;;;;;5099112;27;20200;-72
2024/03/23 08:08:35;;;;;;;0.50;0.40;;;7.90;99.90;;;;;;5045590;28;20276;-72
2024/03/23 08:11:01;;;;;;;0.50;0.50;;;7.90;99.90;;;;;;5120569;27;20205;-71
2024/03/23 08:13:29;;;;;;;0.90;0.70;;;7.80;99.90;;;;;;5074949;27;20211;-72
2024/03/23 08:15:57;;;;;;;0.93;0.70;;;7.70;99.90;;;;;;5080871;27;20618;-72
2024/03/23 08:18:24;;;;;;;0.70;0.70;;;7.60;99.90;;;;;;5113571;27;20223;-71
2024/03/23 08:20:56;;;;;;;0.63;0.63;;;7.60;99.90;;;;;;5045864;28;20211;-72
2024/03/23 08:23:22;;;;;;;1.30;0.80;;;7.60;99.90;;;;;;5006587;28;20250;-72
2024/03/23 08:25:50;;;;;;;0.80;0.80;;;7.60;99.90;;;;;;5036126;28;20200;-72
2024/03/23 08:28:16;;;;;;;1.35;1.08;;;7.60;99.90;;;;;;5089882;28;20221;-72
2024/03/23 08:30:42;;;;;;;1.55;1.30;;;7.60;99.90;;;;;;5104676;28;20642;-72
2024/03/23 08:33:09;;;;;;;1.42;0.98;;;7.60;99.90;;;;;;5051026;28;20248;-72
2024/03/23 08:35:35;;;;;;;0.90;0.90;;;7.60;99.90;;;;;;5129639;28;20566;-72
2024/03/23 08:38:02;;;;;;;1.30;1.20;;;7.70;99.90;;;;;;5060018;28;20687;-72
2024/03/23 08:40:28;;;;;;;1.10;1.00;;;7.70;99.90;;;;;;5094761;28;20201;-71
2024/03/23 08:42:56;;;;;;;1.20;1.10;;;7.80;99.90;;;;;;5100080;28;20543;-71
2024/03/23 08:45:22;;;;;;;0.93;0.93;;;8.00;99.90;;;;;;5055522;28;20203;-72
2024/03/23 08:47:49;;;;;;;2.43;1.83;;;8.20;99.90;;;;;;5038754;27;20205;-72
2024/03/23 08:50:15;;;;;;;0.80;0.80;;;8.10;99.90;;;;;;5035549;28;21187;-72
2024/03/23 08:52:41;;;;;;;2.00;1.67;;;8.20;99.90;;;;;;5033259;28;20199;-72
2024/03/23 08:55:09;;;;;;;1.35;1.00;;;8.10;99.90;;;;;;5033236;28;20627;-72
2024/03/23 08:57:36;;;;;;;5.23;1.63;;;8.10;99.90;;;;;;5060081;28;20197;-72
2024/03/23 09:00:05;;;;;;;1.60;1.50;;;8.20;99.90;;;;;;5129372;28;20702;-72
2024/03/23 09:02:33;;;;;;;1.85;1.60;;;8.30;99.90;;;;;;5047274;28;20650;-71
2024/03/23 09:05:04;;;;;;;3.07;1.77;;;8.20;99.90;;;;;;5107948;28;20204;-72
2024/03/23 09:07:31;;;;;;;5.60;1.77;;;8.20;99.90;;;;;;5083642;28;21116;-72
2024/03/23 09:09:57;;;;;;;2.20;2.00;;;8.00;99.40;;;;;;5070073;28;20610;-71
2024/03/23 09:12:23;;;;;;;2.27;2.00;;;8.00;99.30;;;;;;5124355;28;20625;-71
2024/03/23 09:14:49;;;;;;;2.23;1.63;;;7.90;99.40;;;;;;5045479;28;20200;-72
2024/03/23 09:17:18;;;;;;;1.80;1.70;;;7.90;99.90;;;;;;5118441;27;20618;-72
2024/03/23 09:19:44;;;;;;;4.77;2.70;;;8.00;99.70;;;;;;5060260;27;20650;-71
2024/03/23 09:22:10;;;;;;;4.27;2.10;;;7.90;98.30;;;;;;5039622;28;20611;-72
2024/03/23 09:24:36;;;;;;;2.95;2.38;;;7.90;97.90;;;;;;5042741;27;20279;-72
2024/03/23 09:27:04;;;;;;;4.53;2.60;;;8.00;98.70;;;;;;5036779;28;20202;-72
2024/03/23 09:29:29;;;;;;;3.90;3.20;;;8.00;98.10;;;;;;5040516;28;20634;-72
2024/03/23 09:31:56;;;;;;;8.03;3.50;;;7.90;96.70;;;;;;5042514;27;20626;-72
2024/03/23 09:34:23;;;;;;;3.95;3.03;;;7.90;96.40;;;;;;5039408;28;20646;-72
2024/03/23 09:36:52;;;;;;;3.23;2.63;;;8.00;97.00;;;;;;5043368;27;20216;-71
2024/03/23 09:39:19;;;;;;;4.70;2.90;;;8.10;97.30;;;;;;5039272;28;20658;-71
2024/03/23 09:41:46;;;;;;;5.40;3.13;;;8.20;95.20;;;;;;5041027;28;20630;-71
2024/03/23 09:44:12;;;;;;;2.80;2.10;;;8.40;95.10;;;;;;5041663;27;21163;-72
2024/03/23 09:46:39;;;;;;;4.53;3.40;;;8.40;93.90;;;;;;5039278;28;21242;-72
2024/03/23 09:49:08;;;;;;;8.33;3.70;;;8.40;92.80;;;;;;5037956;28;21224;-71
2024/03/23 09:51:37;;;;;;;5.07;2.67;;;8.40;93.60;;;;;;5039401;28;20618;-72
2024/03/23 09:54:03;;;;;;;5.90;4.00;;;8.40;93.30;;;;;;5039584;28;20980;-72
2024/03/23 09:56:29;;;;;;;5.20;2.90;;;8.30;92.40;;;;;;5056409;27;20610;-72
2024/03/23 09:59:01;;;;;;;4.13;3.07;;;8.20;92.10;;;;;;5039968;28;20652;-72
2024/03/23 10:01:27;;;;;;;7.63;3.73;;;8.00;92.80;;;;;;5036694;28;21235;-72
2024/03/23 10:03:53;;;;;;;4.73;3.40;;;8.00;93.10;;;;;;5040437;28;20629;-71
2024/03/23 10:06:24;;;;;;;6.93;4.37;;;8.10;93.90;;;;;;5037863;28;21243;-71
2024/03/23 10:08:52;;;;;;;3.80;3.47;;;8.20;93.60;;;;;;5038464;28;20192;-71
2024/03/23 10:11:21;;;;;;;13.00;3.50;;;8.20;93.50;;;;;;5040697;28;20722;-71
2024/03/23 10:13:47;;;;;;;5.73;3.50;;;8.10;94.10;;;;;;5040845;28;20625;-71
2024/03/23 10:16:22;;;;;;;4.13;3.73;;;8.10;94.10;;;;;;5039772;28;20971;-72
2024/03/23 10:18:49;;;;;;;3.90;3.33;;;8.20;93.80;;;;;;5036495;28;20988;-72
2024/03/23 10:21:17;;;;;;;4.70;3.77;;;8.20;93.00;;;;;;5036361;28;21012;-71
2024/03/23 10:23:44;;;;;;;3.37;3.00;;;8.20;92.00;;;;;;5044729;27;20618;-72
2024/03/23 10:26:21;;;;;;;6.53;3.10;;;8.30;91.30;;;;;;5062647;27;20621;-72
2024/03/23 10:28:54;;;;;;;4.50;3.10;;;8.30;91.20;;;;;;5027543;27;20679;-72
2024/03/23 10:31:22;;;;;;;3.73;3.00;;;8.50;91.40;;;;;;5030485;27;20717;-73
2024/03/23 10:33:48;;;;;;;10.47;3.70;;;8.60;90.60;;;;;;5021977;28;20683;-72
2024/03/23 10:36:15;;;;;;;4.03;3.60;;;8.80;89.50;;;;;;5019809;28;20748;-71
2024/03/23 10:38:42;;;;;;;6.40;3.00;;;8.70;87.80;;;;;;5023674;28;21238;-72
2024/03/23 10:41:10;;;;;;;11.50;4.20;;;8.70;89.90;;;;;;5022117;28;20608;-72
2024/03/23 10:43:38;;;;;;;10.43;3.50;;;8.80;90.20;;;;;;5031571;27;20643;-72
2024/03/23 10:46:05;;;;;;;4.63;3.50;;;8.80;89.70;;;;;;5014633;28;21204;-73
2024/03/23 10:48:32;;;;;;;9.90;3.73;;;8.90;90.00;;;;;;5016382;28;20621;-72
2024/03/23 10:50:59;;;;;;;5.10;3.43;;;8.80;88.80;;;;;;5019810;28;21184;-73
2024/03/23 10:53:27;;;;;;;6.83;4.10;;;8.80;89.60;;;;;;5017007;28;20612;-72
2024/03/23 10:55:56;;;;;;;3.90;2.77;;;8.60;90.60;;;;;;5023713;28;20672;-72
2024/03/23 10:58:26;;;;;;;6.47;3.50;;;8.10;91.90;;;;;;5029222;28;21203;-72
2024/03/23 11:00:54;;;;;;;3.10;2.28;;;7.40;95.10;;;;;;5029082;28;20642;-72
2024/03/23 11:03:31;;;;;;;3.53;2.03;;;6.70;98.30;;;;;;5022294;28;20209;-72
2024/03/23 11:05:57;;;;;;;3.00;1.90;;;6.00;99.90;;;;;;5021732;28;20200;-72
2024/03/23 11:08:38;;;;;;;2.20;2.00;;;5.60;99.90;;;;;;5016762;27;20804;-72
2024/03/23 11:11:18;;;;;;;2.72;2.53;;;5.20;99.90;;;;;;5050341;27;20283;-72
2024/03/23 11:13:45;;;;;;;3.42;2.35;;;5.20;99.90;;;;;;5053629;27;20259;-72
2024/03/23 11:16:17;;;;;;;4.65;2.60;;;5.40;99.90;;;;;;5079516;27;20295;-72
2024/03/23 11:18:45;;;;;;;4.55;2.00;;;5.50;99.90;;;;;;5045601;27;20271;-72
2024/03/23 11:21:31;;;;;;;4.32;1.85;;;5.60;99.90;;;;;;5042310;28;20613;-72
2024/03/23 11:24:16;;;;;;;2.22;2.03;;;5.70;99.90;;;;;;5039872;28;20199;-72
2024/03/23 11:26:41;;;;;;;3.45;2.22;;;5.90;99.90;;;;;;5053822;27;20287;-71
2024/03/23 11:29:12;;;;;;;2.63;2.07;;;6.00;99.90;;;;;;5043630;27;20279;-71
2024/03/23 11:31:45;;;;;;;7.68;3.63;;;6.30;99.90;;;;;;5037101;28;20292;-70
2024/03/23 11:34:12;;;;;;;4.47;2.50;;;6.50;99.90;;;;;;5037583;28;20211;-71
2024/03/23 11:36:38;;;;;;;4.20;2.33;;;6.60;99.90;;;;;;5035652;28;20191;-71
2024/03/23 11:39:13;;;;;;;6.83;2.40;;;6.60;99.90;;;;;;5037383;28;20526;-71
2024/03/23 11:41:46;;;;;;;3.35;2.70;;;6.70;99.90;;;;;;5037518;28;20196;-71
2024/03/23 11:44:16;;;;;;;3.08;2.33;;;6.80;99.90;;;;;;5037798;28;20197;-72
2024/03/23 11:46:44;;;;;;;2.65;2.45;;;6.90;99.90;;;;;;5034109;28;20223;-71
2024/03/23 11:49:23;;;;;;;3.33;2.33;;;6.90;99.90;;;;;;5038711;28;20196;-72
2024/03/23 11:51:49;;;;;;;2.33;1.85;;;7.20;99.90;;;;;;5036006;28;20307;-71
2024/03/23 11:54:16;;;;;;;3.08;2.03;;;7.30;99.90;;;;;;5037107;28;20589;-71
2024/03/23 11:56:54;;;;;;;1.70;1.60;;;7.30;99.90;;;;;;5028627;28;20566;-71
2024/03/23 11:59:32;;;;;;;8.25;2.95;;;7.40;99.50;;;;;;5041808;28;20242;-71
2024/03/23 12:01:59;;;;;;;2.95;1.90;;;7.50;99.30;;;;;;5031613;28;20206;-71
2024/03/23 12:04:27;;;;;;;3.80;2.08;;;7.60;98.80;;;;;;5045237;28;20560;-71
2024/03/23 12:07:11;;;;;;;4.45;3.55;;;7.80;99.60;;;;;;5033125;28;20208;-71
2024/03/23 12:09:38;;;;;;;4.73;2.33;;;7.90;97.90;;;;;;5015625;27;20287;-71
2024/03/23 12:12:14;;;;;;;3.50;1.73;;;7.90;96.10;;;;;;5024561;28;20615;-71
2024/03/23 12:14:41;;;;;;;5.50;1.77;;;8.10;96.10;;;;;;5017327;28;20641;-71
2024/03/23 12:17:12;;;;;;;1.90;1.40;;;8.30;96.80;;;;;;5047460;27;20621;-72
2024/03/23 12:19:41;;;;;;;2.60;1.17;;;8.40;94.60;;;;;;5051384;27;20651;-72
2024/03/23 12:22:07;;;;;;;1.70;1.33;;;8.20;94.30;;;;;;5035396;28;20631;-72
2024/03/23 12:24:35;;;;;;;2.73;1.67;;;8.10;94.10;;;;;;5039044;28;20622;-72
2024/03/23 12:27:02;;;;;;;5.03;1.40;;;8.10;93.70;;;;;;5032243;28;20633;-72
2024/03/23 12:29:31;;;;;;;8.60;3.40;;;8.10;94.50;;;;;;5034985;28;20610;-72
2024/03/23 12:31:58;;;;;;;2.43;1.33;;;8.00;94.10;;;;;;5065600;28;21028;-72
2024/03/23 12:34:27;;;;;;;2.40;1.60;;;8.00;94.00;;;;;;5128064;28;21147;-72
2024/03/23 12:36:52;;;;;;;2.93;1.77;;;8.00;92.90;;;;;;5031264;28;20623;-72
2024/03/23 12:39:20;;;;;;;3.57;2.93;;;8.20;92.80;;;;;;5041868;28;20657;-72
2024/03/23 12:41:46;;;;;;;4.57;1.63;;;8.10;92.50;;;;;;5091825;28;20204;-72
2024/03/23 12:44:13;;;;;;;2.30;1.90;;;8.10;92.20;;;;;;5058150;27;20618;-72
2024/03/23 12:46:39;;;;;;;4.17;2.23;;;8.10;92.90;;;;;;5033998;28;20762;-72
2024/03/23 12:49:06;;;;;;;3.20;2.00;;;8.00;92.40;;;;;;5046012;28;20706;-72
2024/03/23 12:51:33;;;;;;;5.70;2.03;;;8.00;92.00;;;;;;5048885;28;20200;-72
2024/03/23 12:54:00;;;;;;;5.23;2.60;;;7.90;91.40;;;;;;5045535;28;21198;-72
2024/03/23 12:56:28;;;;;;;2.27;1.97;;;8.00;91.40;;;;;;5045105;28;20629;-72